Time;durP1;ratioP1;P1;durP2;ratioP2;P2;SDS_P1;SDS_P2;PMS_P1;PMS_P2;Temp;Humidity;BMP_temperature;BMP_pressure;BME280_temperature;BME280_humidity;BME280_pressure;Samples;Min_cycle;Max_cycle;Signal;HPM_P1;HPM_P2
2021/06/15 00:02:25;;;;;;;7.10;1.40;;;17.50;99.90;;;;;;5066007;28;20051;-63
2021/06/15 00:04:53;;;;;;;4.63;1.55;;;17.30;99.90;;;;;;5067214;28;20055;-63
2021/06/15 00:07:20;;;;;;;8.13;1.70;;;17.10;99.90;;;;;;5053385;28;20044;-63
2021/06/15 00:09:48;;;;;;;3.00;1.45;;;17.10;99.90;;;;;;5067340;28;20099;-62
2021/06/15 00:12:15;;;;;;;3.80;1.67;;;17.00;99.90;;;;;;5067141;28;20040;-62
2021/06/15 00:14:42;;;;;;;4.85;1.48;;;16.90;99.90;;;;;;5067019;28;20056;-63
2021/06/15 00:17:09;;;;;;;6.65;1.52;;;16.70;99.90;;;;;;5067135;28;20051;-62
2021/06/15 00:19:36;;;;;;;5.72;1.48;;;16.60;99.90;;;;;;5066679;28;20452;-62
2021/06/15 00:22:03;;;;;;;3.75;1.30;;;16.50;99.90;;;;;;5061922;28;20037;-62
2021/06/15 00:24:42;;;;;;;5.07;1.52;;;16.40;99.90;;;;;;5060685;28;20052;-62
2021/06/15 00:27:12;;;;;;;5.32;1.55;;;16.40;99.90;;;;;;5057244;28;20071;-62
2021/06/15 00:29:39;;;;;;;7.85;1.58;;;16.30;99.90;;;;;;5061823;28;20053;-62
2021/06/15 00:32:06;;;;;;;7.07;1.85;;;16.30;99.90;;;;;;5046911;28;20563;-62
2021/06/15 00:34:33;;;;;;;6.75;1.80;;;16.20;99.90;;;;;;5063550;28;20037;-62
2021/06/15 00:37:10;;;;;;;4.43;1.45;;;16.30;99.90;;;;;;5067238;28;20041;-62
2021/06/15 00:39:40;;;;;;;6.82;1.40;;;16.30;99.90;;;;;;5066904;28;20049;-63
2021/06/15 00:42:07;;;;;;;6.65;1.42;;;16.20;99.90;;;;;;5067141;28;20052;-63
2021/06/15 00:44:34;;;;;;;8.90;1.98;;;16.20;99.90;;;;;;5066516;28;20103;-63
2021/06/15 00:47:02;;;;;;;7.43;1.25;;;16.30;99.90;;;;;;5066501;28;20045;-63
2021/06/15 00:49:33;;;;;;;6.05;1.30;;;16.30;99.90;;;;;;5066104;28;20049;-63
2021/06/15 00:52:00;;;;;;;7.32;1.83;;;16.30;99.90;;;;;;5066583;28;20083;-63
2021/06/15 00:54:26;;;;;;;6.15;1.20;;;16.30;99.90;;;;;;5066560;28;20052;-63
2021/06/15 00:56:53;;;;;;;7.60;1.55;;;16.40;99.90;;;;;;5066131;28;20047;-63
2021/06/15 00:59:21;;;;;;;7.10;1.90;;;16.40;99.90;;;;;;5065787;28;20049;-63
2021/06/15 01:01:48;;;;;;;6.15;1.38;;;16.50;99.90;;;;;;5066191;28;20140;-63
2021/06/15 01:04:17;;;;;;;5.10;1.17;;;16.50;99.90;;;;;;5065974;28;20041;-62
2021/06/15 01:06:55;;;;;;;9.95;2.45;;;16.50;99.90;;;;;;5065984;28;20056;-63
2021/06/15 01:09:41;;;;;;;8.73;1.70;;;16.40;99.90;;;;;;5065533;28;20052;-63
2021/06/15 01:12:29;;;;;;;7.82;1.23;;;16.40;99.90;;;;;;5066467;28;20072;-63
2021/06/15 01:15:16;;;;;;;7.53;1.67;;;16.40;99.90;;;;;;5065858;28;20041;-63
2021/06/15 01:18:01;;;;;;;8.38;1.73;;;16.40;99.90;;;;;;5065761;28;20049;-63
2021/06/15 01:20:37;;;;;;;6.40;1.30;;;16.40;99.90;;;;;;5054622;28;20055;-63
2021/06/15 01:23:42;;;;;;;9.70;1.50;;;16.40;99.90;;;;;;5048978;28;20041;-63
2021/06/15 01:26:27;;;;;;;5.15;1.30;;;16.40;99.90;;;;;;5052570;28;20539;-62
2021/06/15 01:29:04;;;;;;;9.30;1.95;;;16.20;99.90;;;;;;5055324;28;20045;-63
2021/06/15 01:31:44;;;;;;;7.40;1.63;;;16.20;99.90;;;;;;5059472;28;20110;-62
2021/06/15 01:34:34;;;;;;;8.80;1.92;;;16.10;99.90;;;;;;5059506;28;20629;-63
2021/06/15 01:37:33;;;;;;;8.95;1.58;;;16.00;99.90;;;;;;5054860;28;20049;-64
2021/06/15 01:40:13;;;;;;;9.20;1.92;;;16.00;99.90;;;;;;5077552;28;20069;-63
2021/06/15 01:42:52;;;;;;;7.25;1.73;;;15.90;99.90;;;;;;5045586;28;20044;-63
2021/06/15 01:45:31;;;;;;;7.60;1.55;;;15.80;99.90;;;;;;5045476;28;20057;-63
2021/06/15 01:48:21;;;;;;;7.85;1.58;;;15.70;99.90;;;;;;5052371;28;20045;-64
2021/06/15 01:50:53;;;;;;;7.03;1.95;;;15.70;99.90;;;;;;5065344;28;20040;-64
2021/06/15 01:53:22;;;;;;;6.50;1.48;;;15.60;99.90;;;;;;5065983;28;20045;-63
2021/06/15 01:55:52;;;;;;;9.32;1.65;;;15.60;99.90;;;;;;5065127;28;20070;-63
2021/06/15 01:58:22;;;;;;;5.60;1.40;;;15.70;99.90;;;;;;5065444;28;20053;-64
2021/06/15 02:00:51;;;;;;;6.20;1.40;;;15.70;99.90;;;;;;5065699;28;20040;-63
2021/06/15 02:03:19;;;;;;;9.75;1.67;;;15.70;99.90;;;;;;5065491;28;20041;-64
2021/06/15 02:05:52;;;;;;;8.43;1.67;;;15.80;99.90;;;;;;5065118;28;20044;-63
2021/06/15 02:08:28;;;;;;;7.57;1.67;;;15.90;99.90;;;;;;5064971;28;20420;-64
2021/06/15 02:10:57;;;;;;;12.80;1.88;;;15.80;99.90;;;;;;5052217;28;20075;-63
2021/06/15 02:13:46;;;;;;;9.00;1.85;;;15.70;99.90;;;;;;5063908;28;20041;-64
2021/06/15 02:16:22;;;;;;;9.85;1.38;;;15.70;99.90;;;;;;5064964;28;20044;-62
2021/06/15 02:18:55;;;;;;;11.63;1.50;;;15.70;99.90;;;;;;5063523;28;20069;-62
2021/06/15 02:21:24;;;;;;;;;;;15.70;99.90;;;;;;5065281;28;20041;-62
2021/06/15 02:23:59;;;;;;;7.55;1.80;;;15.70;99.90;;;;;;5046643;28;19921;-63
2021/06/15 02:26:49;;;;;;;11.43;2.08;;;15.70;99.90;;;;;;5046118;28;20068;-63
2021/06/15 02:29:15;;;;;;;6.68;1.92;;;15.70;99.90;;;;;;5060407;28;20053;-62
2021/06/15 02:31:59;;;;;;;6.18;1.40;;;15.70;99.90;;;;;;5049169;28;20049;-62
2021/06/15 02:34:29;;;;;;;10.80;1.73;;;15.80;99.90;;;;;;5060934;28;20045;-64
2021/06/15 02:36:56;;;;;;;12.32;1.83;;;15.80;99.90;;;;;;5065181;28;20102;-62
2021/06/15 02:39:29;;;;;;;8.02;1.58;;;15.80;99.90;;;;;;5064925;28;20073;-62
2021/06/15 02:41:59;;;;;;;10.45;1.98;;;15.80;99.90;;;;;;5064692;28;20056;-63
2021/06/15 02:44:30;;;;;;;;;;;15.80;99.90;;;;;;5069044;28;20061;-63
2021/06/15 02:46:59;;;;;;;11.52;2.00;;;15.70;99.90;;;;;;5069303;28;19921;-63
2021/06/15 02:49:30;;;;;;;14.10;2.20;;;15.70;99.90;;;;;;5068997;28;20053;-63
2021/06/15 02:52:07;;;;;;;8.70;1.58;;;15.70;99.90;;;;;;5068328;28;20045;-62
2021/06/15 02:54:48;;;;;;;8.70;1.60;;;15.60;99.90;;;;;;5068837;28;20045;-63
2021/06/15 02:57:17;;;;;;;7.88;2.20;;;15.60;99.90;;;;;;5068470;28;20136;-63
2021/06/15 02:59:44;;;;;;;10.20;1.90;;;15.60;99.90;;;;;;5068222;28;20041;-62
2021/06/15 03:02:11;;;;;;;8.52;1.90;;;15.60;99.90;;;;;;5068247;28;20242;-62
2021/06/15 03:04:38;;;;;;;10.68;2.40;;;15.50;99.90;;;;;;5067179;28;20045;-63
2021/06/15 03:07:04;;;;;;;5.70;1.50;;;15.60;99.90;;;;;;5068325;28;20041;-63
2021/06/15 03:09:31;;;;;;;9.10;2.10;;;15.50;99.90;;;;;;5068357;28;20699;-62
2021/06/15 03:12:09;;;;;;;7.95;1.70;;;15.60;99.90;;;;;;5067881;28;20058;-62
2021/06/15 03:14:37;;;;;;;8.13;1.75;;;15.60;99.90;;;;;;5068277;28;20045;-63
2021/06/15 03:17:07;;;;;;;7.35;1.60;;;15.50;99.90;;;;;;5066535;28;20059;-63
2021/06/15 03:19:55;;;;;;;7.47;1.50;;;15.50;99.90;;;;;;5067892;28;20045;-63
2021/06/15 03:22:46;;;;;;;8.38;1.60;;;15.50;99.90;;;;;;5055533;28;20052;-63
2021/06/15 03:25:21;;;;;;;12.18;1.90;;;15.40;99.90;;;;;;5057239;28;20108;-63
2021/06/15 03:28:17;;;;;;;6.30;1.50;;;15.40;99.90;;;;;;5053706;28;20068;-63
2021/06/15 03:31:04;;;;;;;9.07;1.60;;;15.40;99.90;;;;;;5063844;28;20040;-63
2021/06/15 03:33:33;;;;;;;11.10;2.20;;;15.40;99.90;;;;;;5067921;28;20412;-64
2021/06/15 03:36:01;;;;;;;8.00;2.00;;;15.30;99.90;;;;;;5067799;28;20043;-63
2021/06/15 03:38:33;;;;;;;10.82;1.90;;;15.30;99.90;;;;;;5067764;28;20099;-63
2021/06/15 03:41:00;;;;;;;7.65;1.42;;;15.20;99.90;;;;;;5054425;28;20045;-63
2021/06/15 03:43:30;;;;;;;9.88;1.58;;;15.20;99.90;;;;;;5067390;28;20045;-63
2021/06/15 03:46:03;;;;;;;9.93;1.77;;;15.20;99.90;;;;;;5067269;28;20045;-62
2021/06/15 03:48:30;;;;;;;8.65;2.30;;;15.30;99.90;;;;;;5067763;28;20053;-63
2021/06/15 03:50:58;;;;;;;8.10;2.00;;;15.20;99.90;;;;;;5067361;28;20043;-62
2021/06/15 03:53:31;;;;;;;8.88;1.67;;;15.10;99.90;;;;;;5053577;28;20076;-63
2021/06/15 03:56:00;;;;;;;8.07;1.73;;;15.20;99.90;;;;;;5066613;28;20045;-63
2021/06/15 03:58:27;;;;;;;16.33;2.28;;;15.10;99.90;;;;;;5067363;28;20045;-63
2021/06/15 04:00:55;;;;;;;9.55;1.70;;;15.10;99.90;;;;;;5067149;28;20045;-62
2021/06/15 04:03:24;;;;;;;13.52;2.13;;;15.10;99.90;;;;;;5066867;28;20067;-63
2021/06/15 04:05:53;;;;;;;13.55;1.98;;;15.10;99.90;;;;;;5067136;28;20055;-63
2021/06/15 04:08:20;;;;;;;8.90;2.50;;;15.10;99.90;;;;;;5067189;28;20045;-63
2021/06/15 04:10:51;;;;;;;6.30;1.48;;;15.10;99.90;;;;;;5067102;28;20313;-64
2021/06/15 04:13:23;;;;;;;7.93;1.98;;;15.20;99.90;;;;;;5066844;28;20052;-63
2021/06/15 04:15:50;;;;;;;9.63;2.90;;;15.20;99.90;;;;;;5067057;28;20041;-63
2021/06/15 04:18:18;;;;;;;7.88;2.10;;;15.20;99.90;;;;;;5058119;28;20414;-62
2021/06/15 04:20:49;;;;;;;8.17;2.17;;;15.10;99.90;;;;;;5063686;28;20112;-63
2021/06/15 04:23:20;;;;;;;6.03;1.85;;;15.10;99.90;;;;;;5056938;28;20045;-63
2021/06/15 04:25:48;;;;;;;8.25;1.67;;;15.10;99.90;;;;;;5079025;28;20045;-63
2021/06/15 04:28:16;;;;;;;9.73;2.20;;;15.20;99.90;;;;;;5052574;28;20045;-63
2021/06/15 04:30:53;;;;;;;9.60;2.72;;;15.20;99.90;;;;;;5060437;28;20051;-63
2021/06/15 04:33:27;;;;;;;10.48;1.95;;;15.10;99.90;;;;;;5066363;28;20052;-63
2021/06/15 04:35:56;;;;;;;6.95;1.77;;;15.10;99.90;;;;;;5066368;28;20045;-63
2021/06/15 04:38:51;;;;;;;8.48;2.30;;;15.30;99.90;;;;;;5065421;28;20398;-63
2021/06/15 04:41:29;;;;;;;10.38;1.98;;;15.40;99.90;;;;;;5066656;28;20045;-63
2021/06/15 04:44:04;;;;;;;10.73;2.67;;;15.40;99.90;;;;;;5066135;28;20025;-63
2021/06/15 04:47:11;;;;;;;8.93;2.10;;;15.40;99.90;;;;;;5066233;28;20064;-63
2021/06/15 04:49:46;;;;;;;7.22;1.80;;;15.40;99.90;;;;;;5084059;28;20063;-63
2021/06/15 04:52:15;;;;;;;7.18;1.35;;;15.40;99.90;;;;;;5084079;28;20063;-63
2021/06/15 04:54:46;;;;;;;11.98;1.90;;;15.50;99.90;;;;;;5083693;28;20136;-63
2021/06/15 04:57:17;;;;;;;9.82;2.03;;;15.60;99.90;;;;;;5078247;28;20053;-63
2021/06/15 04:59:47;;;;;;;8.45;1.90;;;15.60;99.90;;;;;;5076984;28;20132;-63
2021/06/15 05:02:17;;;;;;;10.38;2.10;;;15.70;99.90;;;;;;5084001;28;20070;-62
2021/06/15 05:04:43;;;;;;;;;;;15.60;99.90;;;;;;5083698;28;20104;-63
2021/06/15 05:07:20;;;;;;;9.18;2.15;;;15.60;99.90;;;;;;5083803;28;19920;-63
2021/06/15 05:09:54;;;;;;;22.25;3.83;;;15.70;99.90;;;;;;5083853;28;20162;-63
2021/06/15 05:12:33;;;;;;;18.30;3.58;;;15.80;99.90;;;;;;5083582;28;20063;-63
2021/06/15 05:15:09;;;;;;;7.45;2.03;;;16.00;99.90;;;;;;5083517;28;20045;-63
2021/06/15 05:17:36;;;;;;;9.43;1.90;;;16.10;99.90;;;;;;5082090;28;20108;-63
2021/06/15 05:20:06;;;;;;;10.23;3.08;;;16.20;99.90;;;;;;5082426;28;20048;-61
2021/06/15 05:22:39;;;;;;;10.30;1.80;;;16.40;99.90;;;;;;5066537;28;20052;-63
2021/06/15 05:25:10;;;;;;;8.43;1.95;;;16.30;99.90;;;;;;5065758;28;20112;-62
2021/06/15 05:27:36;;;;;;;7.03;2.15;;;16.40;99.90;;;;;;5046490;28;20047;-62
2021/06/15 05:30:05;;;;;;;8.00;1.80;;;16.50;99.90;;;;;;5047229;28;20045;-62
2021/06/15 05:32:32;;;;;;;12.38;2.42;;;16.60;99.90;;;;;;5047452;28;20056;-61
2021/06/15 05:34:59;;;;;;;6.32;2.35;;;16.60;99.90;;;;;;5043770;28;20037;-62
2021/06/15 05:37:26;;;;;;;9.73;1.70;;;16.60;99.90;;;;;;5047684;28;20049;-62
2021/06/15 05:39:56;;;;;;;10.55;2.63;;;16.60;99.90;;;;;;5047810;28;20516;-62
2021/06/15 05:42:23;;;;;;;8.82;2.17;;;16.80;99.90;;;;;;5051591;28;20124;-62
2021/06/15 05:44:50;;;;;;;11.00;2.20;;;16.80;99.90;;;;;;5049331;28;20046;-63
2021/06/15 05:47:16;;;;;;;11.13;2.53;;;16.70;99.90;;;;;;5048246;28;20048;-62
2021/06/15 05:49:42;;;;;;;10.45;2.22;;;16.80;99.90;;;;;;5044115;28;20100;-62
2021/06/15 05:52:12;;;;;;;10.52;2.33;;;16.80;99.90;;;;;;5047595;28;20466;-64
2021/06/15 05:54:40;;;;;;;9.55;1.80;;;16.80;99.90;;;;;;5043231;28;20049;-61
2021/06/15 05:57:08;;;;;;;9.77;2.33;;;16.90;99.90;;;;;;5049732;28;20083;-63
2021/06/15 05:59:34;;;;;;;8.93;2.50;;;17.00;99.90;;;;;;5046509;28;20068;-63
2021/06/15 06:02:01;;;;;;;9.05;2.13;;;16.90;99.90;;;;;;5037075;28;20579;-61
2021/06/15 06:04:34;;;;;;;4.68;2.00;;;16.90;99.90;;;;;;5071443;28;20051;-63
2021/06/15 06:09:50;;;;;;;9.80;2.00;;;16.90;99.90;;;;;;5032359;28;20041;-62
2021/06/15 06:12:16;;;;;;;11.48;2.03;;;17.00;99.90;;;;;;5060262;28;20121;-62
2021/06/15 06:14:43;;;;;;;10.15;2.20;;;17.10;99.90;;;;;;5038270;28;20042;-62
2021/06/15 06:17:10;;;;;;;10.43;2.15;;;17.10;99.90;;;;;;5059934;28;20136;-62
2021/06/15 06:19:37;;;;;;;8.57;1.80;;;17.10;99.90;;;;;;5049062;28;20844;-62
2021/06/15 06:22:03;;;;;;;8.68;1.95;;;17.10;99.90;;;;;;5067488;28;20044;-62
2021/06/15 06:24:31;;;;;;;7.47;1.80;;;17.10;99.90;;;;;;5050329;28;20051;-62
2021/06/15 06:26:57;;;;;;;13.20;1.98;;;17.20;99.90;;;;;;5070851;28;20106;-62
2021/06/15 06:29:24;;;;;;;7.63;1.80;;;17.10;99.90;;;;;;5057362;28;20048;-62
2021/06/15 06:31:49;;;;;;;8.88;1.98;;;17.20;99.90;;;;;;5056738;28;20836;-62
2021/06/15 06:34:16;;;;;;;9.70;2.25;;;17.20;99.90;;;;;;5054226;28;20071;-62
2021/06/15 06:36:43;;;;;;;7.40;2.03;;;17.20;99.90;;;;;;5054437;28;20056;-62
2021/06/15 06:39:10;;;;;;;8.02;2.78;;;17.20;99.90;;;;;;5051139;28;20045;-62
2021/06/15 06:41:37;;;;;;;8.27;1.80;;;17.30;99.90;;;;;;5055057;28;20048;-62
2021/06/15 06:44:04;;;;;;;7.45;2.40;;;17.20;99.90;;;;;;5052244;28;20034;-62
2021/06/15 06:46:31;;;;;;;13.88;2.20;;;17.30;99.90;;;;;;5049308;28;20052;-63
2021/06/15 06:48:57;;;;;;;11.90;1.92;;;17.30;99.90;;;;;;5052841;28;20037;-63
2021/06/15 06:51:24;;;;;;;9.02;2.20;;;17.30;99.90;;;;;;5050474;28;20090;-63
2021/06/15 06:53:52;;;;;;;9.60;2.70;;;17.30;99.90;;;;;;5055708;28;20560;-62
2021/06/15 06:56:19;;;;;;;8.25;2.42;;;17.30;99.90;;;;;;5046263;28;20052;-62
2021/06/15 06:58:47;;;;;;;12.48;2.40;;;17.30;99.90;;;;;;5065621;28;20035;-62
2021/06/15 07:01:13;;;;;;;9.73;2.10;;;17.30;99.90;;;;;;5065985;28;20052;-62
2021/06/15 07:03:39;;;;;;;9.63;2.10;;;17.40;99.90;;;;;;5057433;28;20098;-62
2021/06/15 07:06:06;;;;;;;13.13;2.45;;;17.40;99.90;;;;;;5038886;28;20056;-62
2021/06/15 07:08:32;;;;;;;9.35;2.38;;;17.50;99.90;;;;;;5059613;28;20038;-62
2021/06/15 07:10:58;;;;;;;9.25;2.35;;;17.60;99.90;;;;;;5056127;28;20135;-62
2021/06/15 07:13:24;;;;;;;11.13;1.95;;;17.60;99.90;;;;;;5061934;28;20041;-63
2021/06/15 07:15:51;;;;;;;12.75;2.35;;;17.60;99.90;;;;;;5037335;28;20059;-63
2021/06/15 07:18:17;;;;;;;11.45;2.55;;;17.80;99.90;;;;;;5063983;28;20053;-63
2021/06/15 07:20:44;;;;;;;10.45;2.20;;;17.80;99.90;;;;;;5035791;28;20061;-62
2021/06/15 07:23:11;;;;;;;8.63;1.90;;;17.80;99.90;;;;;;5043162;28;20143;-62
2021/06/15 07:25:38;;;;;;;8.25;2.35;;;17.80;99.90;;;;;;5036338;28;20049;-62
2021/06/15 07:28:24;;;;;;;10.13;2.30;;;17.90;99.90;;;;;;5068471;28;20045;-62
2021/06/15 07:31:02;;;;;;;10.23;1.80;;;17.90;99.90;;;;;;5042945;28;20072;-62
2021/06/15 07:33:48;;;;;;;10.27;2.35;;;17.70;99.90;;;;;;5053131;28;20045;-63
2021/06/15 07:36:34;;;;;;;8.98;2.58;;;17.70;99.90;;;;;;5045765;28;20126;-63
2021/06/15 07:39:21;;;;;;;7.72;2.25;;;17.80;99.90;;;;;;5055829;28;20059;-62
2021/06/15 07:42:08;;;;;;;9.45;2.00;;;17.80;99.90;;;;;;5057700;28;20056;-62
2021/06/15 07:44:56;;;;;;;7.72;2.30;;;17.70;99.90;;;;;;5040066;28;20109;-62
2021/06/15 07:47:22;;;;;;;9.85;1.60;;;17.50;99.90;;;;;;5069565;28;20124;-63
2021/06/15 07:50:08;;;;;;;7.68;1.83;;;17.60;99.90;;;;;;5045976;28;20107;-62
2021/06/15 07:52:55;;;;;;;8.85;1.95;;;17.60;99.90;;;;;;5057479;28;20053;-62
2021/06/15 07:55:42;;;;;;;10.90;1.90;;;17.60;99.90;;;;;;5030843;28;20107;-63
2021/06/15 07:58:13;;;;;;;4.88;1.60;;;17.70;99.90;;;;;;5069440;28;20127;-63
2021/06/15 08:01:00;;;;;;;6.65;2.42;;;17.80;99.90;;;;;;5057774;28;20076;-63
2021/06/15 08:03:26;;;;;;;8.52;2.15;;;18.00;99.90;;;;;;5063995;28;20096;-63
2021/06/15 08:06:02;;;;;;;6.50;1.73;;;18.10;99.90;;;;;;5039427;28;20075;-63
2021/06/15 08:08:29;;;;;;;8.02;1.95;;;18.10;99.90;;;;;;5076200;28;20041;-62
2021/06/15 08:11:15;;;;;;;12.48;2.42;;;18.00;99.90;;;;;;5043324;28;20040;-63
2021/06/15 08:13:43;;;;;;;10.23;2.10;;;18.10;99.90;;;;;;5070113;28;20109;-62
2021/06/15 08:16:11;;;;;;;10.38;2.22;;;18.10;99.90;;;;;;5056536;28;20154;-62
2021/06/15 08:18:37;;;;;;;10.00;2.33;;;18.20;99.90;;;;;;5061462;28;20128;-62
2021/06/15 08:21:03;;;;;;;8.48;2.13;;;18.10;99.90;;;;;;5037480;28;20143;-62
2021/06/15 08:23:30;;;;;;;9.18;2.33;;;18.20;99.90;;;;;;5063966;28;20143;-63
2021/06/15 08:26:18;;;;;;;7.20;1.63;;;18.40;99.90;;;;;;5041182;28;20048;-62
2021/06/15 08:28:44;;;;;;;10.50;2.00;;;18.30;99.90;;;;;;5061679;28;20100;-62
2021/06/15 08:31:31;;;;;;;7.55;1.80;;;18.30;99.90;;;;;;5070325;28;20322;-63
2021/06/15 08:33:57;;;;;;;9.75;1.85;;;18.30;99.90;;;;;;5057254;28;20139;-63
2021/06/15 08:36:25;;;;;;;6.40;1.98;;;18.40;99.90;;;;;;5050069;28;20142;-63
2021/06/15 08:39:12;;;;;;;8.73;2.33;;;18.40;99.90;;;;;;5046055;28;20532;-62
2021/06/15 08:41:38;;;;;;;8.88;2.53;;;18.50;99.90;;;;;;5043685;28;20052;-63
2021/06/15 08:44:06;;;;;;;11.80;2.83;;;18.60;99.90;;;;;;5060719;28;20049;-62
2021/06/15 08:46:32;;;;;;;6.20;2.17;;;18.60;99.90;;;;;;5049629;28;20139;-62
2021/06/15 08:49:03;;;;;;;9.15;2.40;;;18.60;99.90;;;;;;5055453;28;20029;-62
2021/06/15 08:51:30;;;;;;;8.98;1.73;;;18.60;99.90;;;;;;5041505;28;20060;-62
2021/06/15 08:54:03;;;;;;;16.33;2.85;;;18.60;99.90;;;;;;5060049;28;20038;-62
2021/06/15 08:56:32;;;;;;;6.88;1.80;;;18.60;99.90;;;;;;5043500;28;20087;-62
2021/06/15 08:59:20;;;;;;;9.93;2.40;;;18.70;99.90;;;;;;5056909;28;20049;-62
2021/06/15 09:01:54;;;;;;;7.37;2.23;;;18.80;99.90;;;;;;5045555;28;20580;-63
2021/06/15 09:04:21;;;;;;;13.27;3.13;;;18.80;99.90;;;;;;5051005;28;20056;-62
2021/06/15 09:06:48;;;;;;;10.35;2.10;;;19.10;99.90;;;;;;5055865;28;20534;-63
2021/06/15 09:09:15;;;;;;;10.82;2.33;;;19.30;99.90;;;;;;5056914;28;20041;-63
2021/06/15 09:11:56;;;;;;;9.48;2.88;;;19.40;99.90;;;;;;5045815;28;20040;-63
2021/06/15 09:14:49;;;;;;;8.10;2.42;;;19.40;99.70;;;;;;5062962;28;20052;-63
2021/06/15 09:17:26;;;;;;;9.50;2.13;;;19.60;99.90;;;;;;5052180;28;20086;-62
2021/06/15 09:19:54;;;;;;;6.43;2.67;;;19.70;99.90;;;;;;5045981;28;20060;-62
2021/06/15 09:22:33;;;;;;;10.82;2.15;;;19.50;98.20;;;;;;5046994;28;20138;-62
2021/06/15 09:25:04;;;;;;;10.65;2.58;;;19.60;99.90;;;;;;5031021;28;20041;-63
2021/06/15 09:27:33;;;;;;;8.15;1.92;;;19.70;99.90;;;;;;5054906;28;20052;-62
2021/06/15 09:30:01;;;;;;;11.75;2.25;;;19.80;99.90;;;;;;5047375;28;20132;-62
2021/06/15 09:32:30;;;;;;;8.48;2.58;;;19.90;99.90;;;;;;5047805;28;20053;-62
2021/06/15 09:35:01;;;;;;;10.30;2.10;;;19.80;98.80;;;;;;5040264;28;20128;-62
2021/06/15 09:37:38;;;;;;;7.55;1.88;;;19.60;99.20;;;;;;5067150;28;20355;-63
2021/06/15 09:40:10;;;;;;;6.30;1.80;;;19.70;99.70;;;;;;5043200;28;20052;-62
2021/06/15 09:43:09;;;;;;;10.45;2.28;;;19.90;99.40;;;;;;5056633;28;20052;-62
2021/06/15 09:45:47;;;;;;;5.75;1.63;;;20.00;99.60;;;;;;5038277;28;20053;-62
2021/06/15 09:48:31;;;;;;;8.52;2.22;;;20.00;99.50;;;;;;5061063;28;20053;-62
2021/06/15 09:51:00;;;;;;;9.38;1.90;;;20.10;99.20;;;;;;5029137;28;20033;-63
2021/06/15 09:53:31;;;;;;;7.57;2.30;;;20.00;98.10;;;;;;5070403;28;20064;-63
2021/06/15 09:56:00;;;;;;;5.78;1.95;;;19.80;98.10;;;;;;5035371;28;20346;-63
2021/06/15 09:58:41;;;;;;;7.32;1.65;;;19.90;99.40;;;;;;5070828;28;20045;-63
2021/06/15 10:01:07;;;;;;;8.05;2.15;;;20.00;97.90;;;;;;5034548;28;20045;-63
2021/06/15 10:03:34;;;;;;;7.65;2.28;;;20.20;99.20;;;;;;5069136;28;20048;-63
2021/06/15 10:06:00;;;;;;;7.28;1.98;;;20.30;98.10;;;;;;5046945;28;20099;-63
2021/06/15 10:08:44;;;;;;;9.05;2.45;;;20.40;98.40;;;;;;5077135;28;20047;-62
2021/06/15 10:11:10;;;;;;;10.60;2.00;;;20.30;96.70;;;;;;5034611;28;20128;-65
2021/06/15 10:13:37;;;;;;;11.93;2.10;;;20.20;97.70;;;;;;5076395;28;20037;-65
2021/06/15 10:16:04;;;;;;;7.00;2.28;;;20.30;97.50;;;;;;5030970;28;20046;-65
2021/06/15 10:18:32;;;;;;;7.80;2.00;;;20.40;97.70;;;;;;5070969;28;20124;-65
2021/06/15 10:20:59;;;;;;;7.40;1.67;;;20.40;96.20;;;;;;5045974;28;20049;-64
2021/06/15 10:23:26;;;;;;;9.60;2.03;;;20.40;97.00;;;;;;5065518;28;20798;-63
2021/06/15 10:25:53;;;;;;;7.35;2.00;;;20.40;96.20;;;;;;5042860;28;20269;-63
2021/06/15 10:28:20;;;;;;;6.15;2.35;;;20.40;97.30;;;;;;5063451;28;20109;-63
2021/06/15 10:30:47;;;;;;;7.80;1.95;;;20.40;96.40;;;;;;5058073;28;20105;-63
2021/06/15 10:33:18;;;;;;;4.88;1.30;;;20.30;95.70;;;;;;5061335;28;20341;-63
2021/06/15 10:35:52;;;;;;;6.30;1.83;;;20.60;96.60;;;;;;5040121;28;20049;-63
2021/06/15 10:38:25;;;;;;;8.57;2.30;;;20.80;96.50;;;;;;5069910;28;20063;-63
2021/06/15 10:40:53;;;;;;;6.90;1.58;;;20.80;94.90;;;;;;5038031;28;20057;-63
2021/06/15 10:43:30;;;;;;;8.45;1.80;;;20.70;94.20;;;;;;5059816;28;20044;-63
2021/06/15 10:46:01;;;;;;;9.98;2.30;;;20.40;94.40;;;;;;5044214;28;20056;-63
2021/06/15 10:48:36;;;;;;;5.85;1.83;;;20.40;95.30;;;;;;5079547;28;20053;-63
2021/06/15 10:51:21;;;;;;;7.75;1.83;;;20.50;95.60;;;;;;5056708;28;20123;-65
2021/06/15 10:53:47;;;;;;;9.13;1.67;;;20.60;96.20;;;;;;5030885;28;20049;-65
2021/06/15 10:56:17;;;;;;;9.35;2.03;;;20.90;96.80;;;;;;5048545;28;20045;-65
2021/06/15 10:59:08;;;;;;;9.50;2.38;;;20.70;94.50;;;;;;5085364;28;20078;-65
2021/06/15 11:01:37;;;;;;;6.63;1.85;;;20.80;93.80;;;;;;5052153;28;20543;-65
2021/06/15 11:04:06;;;;;;;8.68;1.90;;;20.80;93.40;;;;;;5065884;28;20105;-65
2021/06/15 11:06:32;;;;;;;4.95;1.58;;;20.70;93.00;;;;;;5037342;28;20049;-65
2021/06/15 11:09:17;;;;;;;8.45;1.80;;;20.70;93.50;;;;;;5070356;28;20040;-65
2021/06/15 11:12:05;;;;;;;5.75;1.40;;;20.80;95.10;;;;;;5046841;28;20055;-65
2021/06/15 11:14:31;;;;;;;6.05;1.77;;;20.80;93.40;;;;;;5052459;28;20057;-65
2021/06/15 11:17:00;;;;;;;4.88;1.27;;;20.60;93.20;;;;;;5044344;28;20057;-66
2021/06/15 11:19:33;;;;;;;4.90;1.50;;;20.80;95.00;;;;;;5062389;28;20050;-65
2021/06/15 11:22:08;;;;;;;7.38;1.63;;;20.80;95.10;;;;;;5042498;28;20057;-65
2021/06/15 11:27:42;;;;;;;5.60;1.83;;;21.10;94.40;;;;;;5048683;28;20056;-65
2021/06/15 11:30:12;;;;;;;6.05;1.50;;;21.20;93.70;;;;;;5043369;28;20055;-65
2021/06/15 11:32:52;;;;;;;5.17;1.87;;;21.50;93.40;;;;;;5039067;28;20045;-65
2021/06/15 11:35:19;;;;;;;5.53;1.88;;;21.30;92.50;;;;;;5044176;28;20049;-65
2021/06/15 11:37:51;;;;;;;5.30;1.42;;;21.30;93.50;;;;;;5039456;28;20052;-65
2021/06/15 11:40:22;;;;;;;6.63;1.42;;;21.50;94.30;;;;;;5031062;28;20079;-65
2021/06/15 11:42:50;;;;;;;5.68;1.15;;;21.60;92.50;;;;;;5047098;28;20135;-65
2021/06/15 11:45:23;;;;;;;4.78;1.83;;;21.70;93.50;;;;;;5046897;28;20069;-65
2021/06/15 11:47:55;;;;;;;6.05;1.75;;;21.90;91.40;;;;;;5039114;28;20072;-65
2021/06/15 11:50:28;;;;;;;6.20;1.55;;;21.80;92.90;;;;;;5041573;28;20057;-65
2021/06/15 11:53:21;;;;;;;5.10;1.50;;;22.00;92.70;;;;;;5039478;28;20060;-65
2021/06/15 11:55:53;;;;;;;7.03;2.05;;;22.10;92.30;;;;;;5026509;28;20196;-65
2021/06/15 11:58:27;;;;;;;6.18;1.67;;;22.20;91.20;;;;;;5046044;28;20045;-65
2021/06/15 12:01:03;;;;;;;6.20;1.27;;;22.20;90.30;;;;;;5055213;28;20069;-65
2021/06/15 12:03:40;;;;;;;8.38;2.08;;;22.00;87.90;;;;;;5044322;28;20381;-65
2021/06/15 12:06:07;;;;;;;8.13;2.00;;;21.90;88.40;;;;;;5020977;28;20055;-65
2021/06/15 12:08:35;;;;;;;5.68;1.60;;;21.90;90.30;;;;;;5043968;28;20060;-65
2021/06/15 12:11:03;;;;;;;7.70;1.67;;;22.20;91.00;;;;;;5030176;28;20105;-65
2021/06/15 12:13:31;;;;;;;5.47;1.92;;;22.20;91.90;;;;;;5042354;28;20310;-65
2021/06/15 12:16:01;;;;;;;6.20;1.95;;;22.30;92.50;;;;;;5021643;28;20041;-65
2021/06/15 12:18:29;;;;;;;11.23;2.47;;;22.50;91.50;;;;;;5030828;28;20052;-65
2021/06/15 12:21:06;;;;;;;5.50;1.45;;;22.70;92.90;;;;;;5022344;28;20117;-65
2021/06/15 12:23:38;;;;;;;6.35;1.88;;;22.90;90.60;;;;;;5037280;28;20064;-65
2021/06/15 12:26:24;;;;;;;6.97;1.30;;;22.70;89.20;;;;;;5039806;28;20048;-65
2021/06/15 12:28:56;;;;;;;17.25;2.45;;;22.80;91.40;;;;;;5061552;28;20088;-65
2021/06/15 12:31:32;;;;;;;7.70;1.23;;;23.00;89.10;;;;;;5042338;28;20128;-65
2021/06/15 12:34:06;;;;;;;5.10;1.65;;;23.00;88.40;;;;;;5064804;28;20418;-65
2021/06/15 12:36:38;;;;;;;6.97;1.80;;;23.00;88.30;;;;;;5045310;28;20047;-65
2021/06/15 12:39:15;;;;;;;6.15;1.88;;;23.20;90.40;;;;;;5031905;28;20038;-65
2021/06/15 12:41:45;;;;;;;6.30;1.70;;;23.30;89.00;;;;;;5033903;28;20065;-65
2021/06/15 12:44:12;;;;;;;4.97;1.83;;;23.20;88.20;;;;;;5078211;28;20060;-65
2021/06/15 12:46:41;;;;;;;6.07;1.50;;;23.10;90.00;;;;;;5036056;28;20053;-65
2021/06/15 12:49:23;;;;;;;6.13;1.50;;;23.20;90.40;;;;;;5069380;28;20399;-66
2021/06/15 12:51:52;;;;;;;4.55;1.48;;;23.40;89.20;;;;;;5036228;28;20152;-65
2021/06/15 12:54:31;;;;;;;5.45;1.90;;;23.40;88.60;;;;;;5077041;28;20052;-65
2021/06/15 12:57:05;;;;;;;5.15;1.40;;;23.50;87.80;;;;;;5032231;28;20057;-65
2021/06/15 12:59:35;;;;;;;8.27;1.70;;;23.50;88.20;;;;;;5065572;28;20061;-65
2021/06/15 13:02:16;;;;;;;4.03;1.27;;;23.30;81.90;;;;;;5048365;28;20058;-65
2021/06/15 13:04:51;;;;;;;5.20;1.67;;;23.20;82.30;;;;;;5062054;28;20045;-65
2021/06/15 13:07:19;;;;;;;4.32;1.55;;;23.30;84.50;;;;;;5039332;28;20078;-62
2021/06/15 13:09:46;;;;;;;7.30;1.70;;;23.40;85.20;;;;;;5064011;28;20034;-66
2021/06/15 13:12:24;;;;;;;5.80;1.40;;;23.70;87.80;;;;;;5039435;28;20119;-64
2021/06/15 13:15:01;;;;;;;5.28;1.20;;;24.10;86.70;;;;;;5061860;28;20048;-65
2021/06/15 13:17:29;;;;;;;4.53;1.42;;;24.30;84.30;;;;;;5040860;28;20059;-65
2021/06/15 13:20:05;;;;;;;5.72;2.10;;;24.50;84.50;;;;;;5059990;28;20075;-65